Webcam Meteoipassi more information Webcam Meteoipassi


Pisa torre orologio more information Pisa torre orologio


avvertimento per Temporali more information blitzortung!


avvertimento per Pioggia more information rain snow radar


altri nostri siti meteo:

Pomeziameteo 1Sito sul meteo

Pomeziameteo DashboardSito sul meteo

Caput FrigorisSito sul meteo

BarcellonameteoSito sul meteo

MeteoipassiSito sul meteo

ViterbometeoSito sul meteo

MeteotortoretoSito sul meteo

TortoretometeolidoSito sul meteo

MeteoGonzagaSito sul meteo



Temporali Inizio validita dal: 18-09-2019 13:00 Fino: 19-09-2019 12:59 Allerta per: Temporali Livello: Giallo info button
Pioggia Inizio validita dal: 18-09-2019 13:00 Fino: 19-09-2019 12:59 Allerta per: Pioggia Livello: Giallo info button

Report METAR

   
LIRQ - Firenze
Dati ricevuti: Sep 18 2019 2:20 am
Sereno  
Sereno  
   Vento: SE 5.6 km/h
Vento: SE 5.6 km/h
Temperatura: 18°C
P.to Rugiada: 16°C
Umidita: 88%
Barometro: 1015 hPa
Visibilita: oltre 10 km
dettagli cloud: Sereno
LIRQ 180020Z 11003KT CAVOK 18/16 Q1015
LIRP - Lucca
Dati ricevuti: Sep 18 2019 2:15 am
Sereno  
Sereno  
   Vento: NE 5.6 km/h
Vento: NE 5.6 km/h
Temperatura: 17°C
P.to Rugiada: 16°C
Umidita: 94%
Barometro: 1015 hPa
Visibilita: oltre 10 km
dettagli cloud: Sereno
LIRP 180015Z 07003KT CAVOK 17/16 Q1015 NOSIG
LIRP - Livorno
Dati ricevuti: Sep 18 2019 2:15 am
Sereno  
Sereno  
   Vento: NE 5.6 km/h
Vento: NE 5.6 km/h
Temperatura: 17°C
P.to Rugiada: 16°C
Umidita: 94%
Barometro: 1015 hPa
Visibilita: oltre 10 km
dettagli cloud: Sereno
LIRP 180015Z 07003KT CAVOK 17/16 Q1015 NOSIG
LIMP - Parma
Dati ricevuti: Sep 17 2019 10:50 pm
DATI Obsoleti
Sereno  
Sereno  
   Vento: SW 18.5 km/h
Vento: SW 18.5 km/h
Temperatura: 24°C
P.to Rugiada: 20°C
Umidita: 78%
Barometro: 1013 hPa
Visibilita: oltre 10 km
dettagli cloud: Sereno
LIMP 172050Z 23010KT CAVOK 24/20 Q1013
LIRF - Roma
Dati ricevuti: Sep 18 2019 2:20 am
Parzialmente nuvoloso  
Parzialmente nuvoloso  
   Vento: Oriente 7.4 km/h
Vento: Oriente 7.4 km/h
Temperatura: 19°C
P.to Rugiada: 17°C
Umidita: 88%
Barometro: 1016 hPa
Nuvole: Parzialmente nuvoloso
Visibilita: 9 km
dettagli cloud: Parzialmente nuvoloso
LIRF 180020Z 09004KT 9000 NSC 19/17 Q1016 NOSIG
 

Script sviluppato da  Saratoga-weather.org Adattato per il modello da  Weerstation Leuven

Potete trovare le nostre info meteo anche a:

European Weather Network

Weather Underground

AWEKAS

HAMweather, WeatherForYou, PWS Weather

Strumentazione usata:

Stazione meteo
Oregon Scientific WMR88

Programma gestore dati meteo
WVIEW

Server per i dati meteo
WDS-5

Provider
Anemos WDS-5

Oregon Scientific WMR88

WVIEW

WDS-5

Anemos WDS-5